createdAt,value
2023-02-22T00:00:01.081Z,100.00
2023-02-22T00:02:32.591Z,100.00
2023-02-22T00:05:02.227Z,100.00
2023-02-22T00:07:35.870Z,100.00
2023-02-22T00:10:09.169Z,100.00
2023-02-22T00:12:38.899Z,100.00
2023-02-22T00:15:09.156Z,100.00
2023-02-22T00:17:39.137Z,100.00
2023-02-22T00:20:10.097Z,100.00
2023-02-22T00:22:42.687Z,100.00
2023-02-22T00:25:12.989Z,100.00
2023-02-22T00:27:43.187Z,100.00
2023-02-22T00:30:19.185Z,100.00
2023-02-22T00:32:50.581Z,100.00
2023-02-22T00:35:23.573Z,100.00
2023-02-22T00:38:00.410Z,100.00
2023-02-22T00:40:32.981Z,100.00
2023-02-22T00:43:04.161Z,100.00
2023-02-22T00:45:35.863Z,100.00
2023-02-22T00:48:07.242Z,100.00
2023-02-22T00:50:37.316Z,100.00
2023-02-22T00:53:10.446Z,100.00
2023-02-22T00:55:41.233Z,100.00
2023-02-22T00:58:11.364Z,100.00
2023-02-22T01:00:43.014Z,100.00
2023-02-22T01:03:15.166Z,100.00
2023-02-22T01:05:45.622Z,100.00
2023-02-22T01:08:19.404Z,100.00
2023-02-22T01:10:49.633Z,100.00
2023-02-22T01:13:20.073Z,100.00
2023-02-22T01:15:50.044Z,100.00
2023-02-22T01:18:21.991Z,100.00
2023-02-22T01:20:51.656Z,100.00
2023-02-22T01:23:24.025Z,100.00
2023-02-22T01:25:54.198Z,100.00
2023-02-22T01:28:24.857Z,100.00
2023-02-22T01:30:56.782Z,100.00
2023-02-22T01:33:27.436Z,100.00
2023-02-22T01:35:57.067Z,100.00
2023-02-22T01:38:29.513Z,100.00
2023-02-22T01:40:59.273Z,100.00
2023-02-22T01:43:33.414Z,100.00
2023-02-22T01:46:05.346Z,100.00
2023-02-22T01:48:41.088Z,100.00
2023-02-22T01:51:15.593Z,100.00
2023-02-22T01:53:53.630Z,100.00
2023-02-22T01:56:24.736Z,100.00
2023-02-22T01:58:58.484Z,100.00
2023-02-22T02:01:29.558Z,100.00
2023-02-22T02:04:00.876Z,100.00
2023-02-22T02:06:34.246Z,100.00
2023-02-22T02:09:12.832Z,100.00
2023-02-22T02:11:44.392Z,100.00
2023-02-22T02:14:16.291Z,100.00
2023-02-22T02:16:53.350Z,100.00
2023-02-22T02:19:35.091Z,100.00
2023-02-22T02:22:22.366Z,100.00
2023-02-22T02:25:29.450Z,100.00
2023-02-22T02:28:29.960Z,100.00
2023-02-22T02:31:25.903Z,100.00
2023-02-22T02:34:05.526Z,100.00
2023-02-22T02:36:40.610Z,100.00
2023-02-22T02:39:20.307Z,100.00
2023-02-22T02:41:53.287Z,100.00
2023-02-22T02:44:31.665Z,100.00
2023-02-22T02:47:08.149Z,100.00
2023-02-22T02:49:46.838Z,100.00
2023-02-22T02:52:20.862Z,100.00
2023-02-22T02:54:52.079Z,100.00
2023-02-22T02:57:22.025Z,100.00
2023-02-22T02:59:51.759Z,100.00
2023-02-22T03:02:43.888Z,100.00
2023-02-22T03:05:32.993Z,100.00
2023-02-22T03:08:10.913Z,100.00
2023-02-22T03:10:51.215Z,100.00
2023-02-22T03:13:33.525Z,100.00
2023-02-22T03:16:14.228Z,100.00
2023-02-22T03:18:54.541Z,100.00
2023-02-22T03:21:36.584Z,100.00
2023-02-22T03:24:12.699Z,100.00
2023-02-22T03:26:45.315Z,100.00
2023-02-22T03:29:20.258Z,100.00
2023-02-22T03:31:56.056Z,100.00
2023-02-22T03:34:32.404Z,100.00
2023-02-22T03:37:13.974Z,100.00
2023-02-22T03:39:47.307Z,100.00
2023-02-22T03:42:22.501Z,100.00
2023-02-22T03:44:54.462Z,100.00
2023-02-22T03:47:31.408Z,100.00
2023-02-22T03:50:07.041Z,100.00
2023-02-22T03:52:41.592Z,100.00
2023-02-22T03:55:17.833Z,100.00
2023-02-22T03:57:51.906Z,100.00
2023-02-22T04:00:24.696Z,100.00
2023-02-22T04:02:54.728Z,100.00
2023-02-22T04:05:25.989Z,100.00
2023-02-22T04:08:00.133Z,100.00
2023-02-22T04:10:30.716Z,100.00
2023-02-22T04:13:00.860Z,100.00
2023-02-22T04:15:30.615Z,100.00
2023-02-22T04:18:06.925Z,100.00
2023-02-22T04:20:36.603Z,100.00
2023-02-22T04:23:17.215Z,100.00
2023-02-22T04:25:47.066Z,100.00
2023-02-22T04:28:19.366Z,100.00
2023-02-22T04:31:12.136Z,100.00
2023-02-22T04:33:42.156Z,100.00
2023-02-22T04:36:16.084Z,100.00
2023-02-22T04:38:49.248Z,100.00
2023-02-22T04:41:20.869Z,100.00
2023-02-22T04:43:50.543Z,100.00
2023-02-22T04:46:24.020Z,100.00
2023-02-22T04:48:55.170Z,100.00
2023-02-22T04:51:28.054Z,100.00
2023-02-22T04:54:08.686Z,100.00
2023-02-22T04:56:40.649Z,100.00
2023-02-22T04:59:10.294Z,100.00
2023-02-22T05:01:41.451Z,100.00
2023-02-22T05:04:11.108Z,100.00
2023-02-22T05:06:40.775Z,100.00
2023-02-22T05:09:13.110Z,100.00
2023-02-22T05:11:42.848Z,100.00
2023-02-22T05:14:12.809Z,100.00
2023-02-22T05:16:42.531Z,100.00
2023-02-22T05:19:12.134Z,100.00
2023-02-22T05:21:42.099Z,100.00
2023-02-22T05:24:14.426Z,100.00
2023-02-22T05:26:46.104Z,100.00
2023-02-22T05:29:16.172Z,100.00
2023-02-22T05:31:45.894Z,100.00
2023-02-22T05:34:15.639Z,100.00
2023-02-22T05:36:46.593Z,100.00
2023-02-22T05:39:19.036Z,100.00
2023-02-22T05:41:48.732Z,100.00
2023-02-22T05:44:18.476Z,100.00
2023-02-22T05:46:48.177Z,100.00
2023-02-22T05:49:18.514Z,100.00
2023-02-22T05:51:48.095Z,100.00
2023-02-22T05:54:20.419Z,100.00
2023-02-22T05:56:50.571Z,100.00
2023-02-22T05:59:20.903Z,100.00
2023-02-22T06:01:50.533Z,100.00
2023-02-22T06:04:20.338Z,100.00
2023-02-22T06:06:50.000Z,100.00
2023-02-22T06:09:22.370Z,100.00
2023-02-22T06:11:54.381Z,100.00
2023-02-22T06:14:24.423Z,100.00
2023-02-22T06:16:56.947Z,100.00
2023-02-22T06:19:27.118Z,100.00
2023-02-22T06:22:00.027Z,100.00
2023-02-22T06:24:32.287Z,100.00
2023-02-22T06:27:04.709Z,100.00
2023-02-22T06:29:34.368Z,100.00
2023-02-22T06:32:04.105Z,100.00
2023-02-22T06:34:33.859Z,100.00
2023-02-22T06:37:03.462Z,100.00
2023-02-22T06:39:35.703Z,100.00
2023-02-22T06:42:05.412Z,100.00
2023-02-22T06:44:35.490Z,100.00
2023-02-22T06:47:05.262Z,100.00
2023-02-22T06:49:34.889Z,100.00
2023-02-22T06:52:06.746Z,100.00
2023-02-22T06:54:40.004Z,100.00
2023-02-22T06:57:10.310Z,100.00
2023-02-22T06:59:39.955Z,100.00
2023-02-22T07:02:09.794Z,100.00
2023-02-22T07:04:41.041Z,100.00
2023-02-22T07:07:12.658Z,100.00
2023-02-22T07:09:45.646Z,100.00
2023-02-22T07:12:15.360Z,100.00
2023-02-22T07:14:45.684Z,100.00
2023-02-22T07:17:15.387Z,100.00
2023-02-22T07:19:45.003Z,100.00
2023-02-22T07:22:15.199Z,100.00
2023-02-22T07:24:47.975Z,100.00
2023-02-22T07:27:17.823Z,100.00
2023-02-22T07:29:47.563Z,100.00
2023-02-22T07:32:17.529Z,100.00
2023-02-22T07:34:48.688Z,100.00
2023-02-22T07:37:21.722Z,100.00
2023-02-22T07:39:57.392Z,100.00
2023-02-22T07:42:28.549Z,100.00
2023-02-22T07:45:00.543Z,100.00
2023-02-22T07:47:30.425Z,100.00
2023-02-22T07:50:00.273Z,100.00
2023-02-22T07:52:29.867Z,100.00
2023-02-22T07:55:02.159Z,100.00
2023-02-22T07:57:31.821Z,100.00
2023-02-22T08:00:01.746Z,100.00
2023-02-22T08:02:34.413Z,100.00
2023-02-22T08:05:04.098Z,100.00
2023-02-22T08:07:33.743Z,100.00
2023-02-22T08:10:10.312Z,100.00
2023-02-22T08:13:24.823Z,100.00
2023-02-22T11:29:37.081Z,89.06
2023-02-22T11:32:21.508Z,88.28
2023-02-22T11:35:03.426Z,88.38
2023-02-22T11:37:39.260Z,89.81
2023-02-22T11:40:18.479Z,88.86
2023-02-22T11:42:49.039Z,87.82
2023-02-22T11:45:25.096Z,88.60
2023-02-22T11:47:57.358Z,88.26
2023-02-22T11:50:31.792Z,87.24
2023-02-22T11:53:17.236Z,87.74
2023-02-22T11:55:54.750Z,88.23
2023-02-22T11:58:35.316Z,86.85
2023-02-22T12:01:17.526Z,86.43
2023-02-22T12:04:18.908Z,86.28
2023-02-22T12:06:58.464Z,86.19
2023-02-22T12:09:37.832Z,86.32
2023-02-22T12:12:19.026Z,85.32
2023-02-22T12:15:03.104Z,85.47
2023-02-22T12:18:00.066Z,85.05
2023-02-22T12:20:42.632Z,86.50
2023-02-22T12:23:26.149Z,86.13
2023-02-22T12:26:01.767Z,85.38
2023-02-22T12:28:38.702Z,83.96
2023-02-22T12:31:20.973Z,83.29
2023-02-22T12:34:02.822Z,81.84
2023-02-22T12:36:39.285Z,82.38
2023-02-22T12:39:27.463Z,82.42
2023-02-22T12:41:58.768Z,80.51
2023-02-22T12:44:33.963Z,81.71
2023-02-22T12:47:05.625Z,81.30
2023-02-22T12:49:43.001Z,81.09
2023-02-22T12:52:22.260Z,80.92
2023-02-22T12:55:31.380Z,78.96
2023-02-22T13:04:20.509Z,80.20
2023-02-22T13:30:30.250Z,77.68
2023-02-22T16:30:32.645Z,82.35
2023-02-22T16:33:34.192Z,82.30
2023-02-22T16:36:27.691Z,82.64
2023-02-22T16:39:39.801Z,82.17
2023-02-22T16:42:24.508Z,82.59
2023-02-22T16:45:46.464Z,82.74
2023-02-22T16:48:30.215Z,82.98
2023-02-22T16:51:44.328Z,83.11
2023-02-22T16:54:38.059Z,83.37
2023-02-22T16:57:46.407Z,82.74
2023-02-22T17:00:33.004Z,83.26
2023-02-22T17:03:17.578Z,84.00
2023-02-22T17:06:05.406Z,84.44
2023-02-22T17:09:03.317Z,85.03
2023-02-22T17:12:01.325Z,85.30
2023-02-22T17:14:47.720Z,85.73
2023-02-22T17:17:44.069Z,86.10
2023-02-22T17:29:05.024Z,86.74
2023-02-22T17:32:32.264Z,87.04
2023-02-22T17:40:12.797Z,86.50
2023-02-22T17:45:50.548Z,87.34
2023-02-22T17:48:32.359Z,87.08
2023-02-22T17:51:54.842Z,87.75
2023-02-22T17:55:30.776Z,88.37
2023-02-22T18:01:51.085Z,88.31
2023-02-22T18:05:31.365Z,87.77
2023-02-22T18:08:59.231Z,89.55
2023-02-22T18:12:46.760Z,89.44
2023-02-22T18:19:38.949Z,89.60
2023-02-22T18:22:53.831Z,88.78
2023-02-22T18:26:03.862Z,89.71
2023-02-22T18:28:44.964Z,90.13
2023-02-22T18:31:19.647Z,89.95
2023-02-22T18:33:51.773Z,90.17
2023-02-22T18:36:26.595Z,89.83
2023-02-22T18:39:03.547Z,90.16
2023-02-22T18:41:36.286Z,90.52
2023-02-22T18:44:10.565Z,90.48
2023-02-22T18:46:40.816Z,90.80
2023-02-22T18:49:15.293Z,90.98
2023-02-22T18:51:46.352Z,90.68
2023-02-22T18:54:22.219Z,91.33
2023-02-22T18:56:52.065Z,91.52
2023-02-22T18:59:25.074Z,91.83
2023-02-22T19:01:54.951Z,92.03
2023-02-22T19:04:25.196Z,93.67
2023-02-22T19:06:57.650Z,91.74
2023-02-22T19:09:29.965Z,91.25
2023-02-22T19:11:59.687Z,91.58
2023-02-22T19:14:29.422Z,91.93
2023-02-22T19:17:01.536Z,91.67
2023-02-22T19:19:31.679Z,91.73
2023-02-22T19:22:01.346Z,91.89
2023-02-22T19:24:33.641Z,92.09
2023-02-22T19:27:05.412Z,91.92
2023-02-22T19:29:38.148Z,91.72
2023-02-22T19:32:08.035Z,92.24
2023-02-22T19:34:38.218Z,92.23
2023-02-22T19:37:08.742Z,91.71
2023-02-22T19:39:42.430Z,92.05
2023-02-22T19:42:12.771Z,92.43
2023-02-22T19:44:42.485Z,92.34
2023-02-22T19:47:12.105Z,91.94
2023-02-22T19:49:41.892Z,91.88
2023-02-22T19:52:11.519Z,91.98
2023-02-22T19:54:44.545Z,91.98
2023-02-22T19:57:16.114Z,92.19
2023-02-22T19:59:46.128Z,91.91
2023-02-22T20:02:15.937Z,92.23
2023-02-22T20:04:50.083Z,92.00
2023-02-22T20:07:19.805Z,91.78
2023-02-22T20:09:52.108Z,91.60
2023-02-22T20:12:21.844Z,91.60
2023-02-22T20:14:51.477Z,91.71
2023-02-22T20:17:21.097Z,91.71
2023-02-22T20:19:50.780Z,91.60
2023-02-22T20:22:20.881Z,91.70
2023-02-22T20:24:53.352Z,91.45
2023-02-22T20:27:24.401Z,91.49
2023-02-22T20:29:54.065Z,91.59
2023-02-22T20:32:24.717Z,91.16
2023-02-22T20:34:54.870Z,91.34
2023-02-22T20:37:24.582Z,91.06
2023-02-22T20:39:56.832Z,90.99
2023-02-22T20:42:26.445Z,91.15
2023-02-22T20:45:01.718Z,91.23
2023-02-22T20:47:31.552Z,90.96
2023-02-22T20:50:01.224Z,90.98
2023-02-22T20:52:30.909Z,90.93
2023-02-22T20:55:04.315Z,90.51
2023-02-22T20:57:33.995Z,90.92
2023-02-22T21:00:03.721Z,90.68
2023-02-22T21:02:33.413Z,91.09
2023-02-22T21:05:03.083Z,90.95
2023-02-22T21:07:32.795Z,90.80
2023-02-22T21:10:06.111Z,90.93
2023-02-22T21:12:36.730Z,90.84
2023-02-22T21:15:07.783Z,90.82
2023-02-22T21:17:37.652Z,91.06
2023-02-22T21:20:12.245Z,91.29
2023-02-22T21:22:43.869Z,91.14
2023-02-22T21:25:16.729Z,91.31
2023-02-22T21:27:47.126Z,91.57
2023-02-22T21:30:17.859Z,91.61
2023-02-22T21:32:47.473Z,91.56
2023-02-22T21:35:17.176Z,91.69
2023-02-22T21:37:46.800Z,91.82
2023-02-22T21:40:21.844Z,91.92
2023-02-22T21:42:52.024Z,92.27
2023-02-22T21:45:23.391Z,92.13
2023-02-22T21:47:54.720Z,92.31
2023-02-22T21:50:25.571Z,92.38
2023-02-22T21:52:55.384Z,92.18
2023-02-22T21:55:27.633Z,91.67
2023-02-22T21:57:57.237Z,91.96
2023-02-22T22:00:38.136Z,92.11
2023-02-22T22:03:12.796Z,92.24
2023-02-22T22:05:45.315Z,92.27
2023-02-22T22:08:19.543Z,92.05
2023-02-22T22:10:56.480Z,92.01
2023-02-22T22:13:28.117Z,92.76
2023-02-22T22:15:57.922Z,92.55
2023-02-22T22:18:27.693Z,92.28
2023-02-22T22:20:57.313Z,91.94
2023-02-22T22:23:26.904Z,91.88
2023-02-22T22:26:10.855Z,91.60
2023-02-22T22:28:41.772Z,92.46
2023-02-22T22:31:12.577Z,91.89
2023-02-22T22:33:44.752Z,92.08
2023-02-22T22:36:16.664Z,91.84
2023-02-22T22:38:47.189Z,91.42
2023-02-22T22:41:21.942Z,91.89
2023-02-22T22:43:54.103Z,92.28
2023-02-22T22:46:24.151Z,92.13
2023-02-22T22:48:53.897Z,92.63
2023-02-22T22:51:23.825Z,92.65
2023-02-22T22:53:54.866Z,92.76
2023-02-22T22:56:28.127Z,92.94
2023-02-22T22:58:59.789Z,93.22
2023-02-22T23:01:34.296Z,92.66
2023-02-22T23:04:06.454Z,92.60
2023-02-22T23:06:39.280Z,93.04
2023-02-22T23:09:12.145Z,92.67
2023-02-22T23:11:46.386Z,92.72
2023-02-22T23:14:19.525Z,92.17
2023-02-22T23:16:50.119Z,91.92
2023-02-22T23:19:20.476Z,92.39
2023-02-22T23:21:51.408Z,92.28
2023-02-22T23:24:22.556Z,92.42
2023-02-22T23:26:54.873Z,92.28
2023-02-22T23:29:25.544Z,92.72
2023-02-22T23:31:55.294Z,92.32
2023-02-22T23:34:26.198Z,92.15
2023-02-22T23:36:55.902Z,92.55
2023-02-22T23:39:27.339Z,92.77
2023-02-22T23:42:01.273Z,92.98
2023-02-22T23:44:31.634Z,93.18
2023-02-22T23:47:02.537Z,93.62
2023-02-22T23:49:36.240Z,93.21
2023-02-22T23:52:06.706Z,93.08
2023-02-22T23:54:43.856Z,93.45
2023-02-22T23:57:17.617Z,93.73
2023-02-22T23:59:47.232Z,93.78
